createdAt,value
2017-08-09T00:00:22.524Z,967.75
2017-08-09T00:01:22.521Z,967.74
2017-08-09T00:02:22.518Z,967.84
2017-08-09T00:03:22.516Z,967.92
2017-08-09T00:04:22.512Z,968.07
2017-08-09T00:05:22.511Z,968.15
2017-08-09T00:06:22.508Z,968.2
2017-08-09T00:07:22.504Z,968.27
2017-08-09T00:08:22.499Z,968.35
2017-08-09T00:09:22.497Z,968.44
2017-08-09T00:10:22.496Z,968.52
2017-08-09T00:11:22.489Z,968.57
2017-08-09T00:12:22.488Z,968.62
2017-08-09T00:13:22.484Z,968.61
2017-08-09T00:14:22.481Z,968.63
2017-08-09T00:15:22.629Z,968.61
2017-08-09T00:16:22.476Z,968.59
2017-08-09T00:17:22.472Z,968.5
2017-08-09T00:18:22.468Z,968.5
2017-08-09T00:19:22.465Z,968.47
2017-08-09T00:20:22.462Z,968.44
2017-08-09T00:21:22.458Z,968.42
2017-08-09T00:22:22.457Z,968.29
2017-08-09T00:23:22.452Z,968.23
2017-08-09T00:24:22.448Z,968.15
2017-08-09T00:25:22.447Z,968.09
2017-08-09T00:26:22.443Z,968.03
2017-08-09T00:27:22.439Z,968.06
2017-08-09T00:28:22.437Z,968.05
2017-08-09T00:29:22.434Z,968.04
2017-08-09T00:30:22.530Z,967.99
2017-08-09T00:31:22.427Z,967.89
2017-08-09T00:32:22.423Z,967.85
2017-08-09T00:33:22.422Z,967.83
2017-08-09T00:34:22.418Z,967.88
2017-08-09T00:35:22.415Z,967.91
2017-08-09T00:36:22.415Z,967.98
2017-08-09T00:37:22.429Z,968.06
2017-08-09T00:38:22.405Z,968.08
2017-08-09T00:39:22.404Z,968.11
2017-08-09T00:40:22.398Z,968.1
2017-08-09T00:41:22.393Z,968.13
2017-08-09T00:42:22.392Z,968.14
2017-08-09T00:43:22.391Z,968.15
2017-08-09T00:44:22.386Z,968.18
2017-08-09T00:45:22.384Z,968.19
2017-08-09T00:46:22.379Z,968.21
2017-08-09T00:47:22.378Z,968.21
2017-08-09T00:48:22.372Z,968.16
2017-08-09T00:49:22.369Z,968.14
2017-08-09T00:50:22.367Z,968.12
2017-08-09T00:51:22.364Z,968.12
2017-08-09T00:52:22.358Z,968.1
2017-08-09T00:53:22.356Z,968.18
2017-08-09T00:54:22.354Z,968.15
2017-08-09T00:55:22.351Z,968.16
2017-08-09T00:56:22.347Z,968.2
2017-08-09T00:57:22.346Z,968.19
2017-08-09T00:58:22.492Z,968.18
2017-08-09T00:59:22.336Z,968.14
2017-08-09T01:00:22.333Z,968.12
2017-08-09T01:01:22.332Z,968.12
2017-08-09T01:02:22.328Z,968.13
2017-08-09T01:03:22.324Z,968.18
2017-08-09T01:04:22.321Z,968.25
2017-08-09T01:05:22.319Z,968.3
2017-08-09T01:06:22.316Z,968.36
2017-08-09T01:07:22.314Z,968.39
2017-08-09T01:08:22.308Z,968.43
2017-08-09T01:09:22.307Z,968.44
2017-08-09T01:10:22.302Z,968.44
2017-08-09T01:11:22.399Z,968.37
2017-08-09T01:12:22.396Z,968.31
2017-08-09T01:13:22.294Z,968.29
2017-08-09T01:14:22.290Z,968.29
2017-08-09T01:15:22.287Z,968.3
2017-08-09T01:16:22.284Z,968.24
2017-08-09T01:17:22.381Z,968.15
2017-08-09T01:18:22.278Z,968.11
2017-08-09T01:19:22.274Z,968.06
2017-08-09T01:20:22.271Z,968.09
2017-08-09T01:21:22.267Z,968.01
2017-08-09T01:22:22.415Z,968.03
2017-08-09T01:23:22.260Z,968.03
2017-08-09T01:24:22.258Z,968.05
2017-08-09T01:25:22.256Z,968.03
2017-08-09T01:26:22.251Z,968.08
2017-08-09T01:27:22.248Z,968.08
2017-08-09T01:28:22.245Z,968.1
2017-08-09T01:29:22.240Z,968.08
2017-08-09T01:30:22.238Z,968.16
2017-08-09T01:31:22.236Z,968.15
2017-08-09T01:32:22.231Z,968.15
2017-08-09T01:33:22.229Z,968.07
2017-08-09T01:34:22.227Z,967.99
2017-08-09T01:35:22.222Z,967.85
2017-08-09T01:36:22.219Z,967.8
2017-08-09T01:37:22.222Z,967.8
2017-08-09T01:38:22.212Z,967.78
2017-08-09T01:39:22.310Z,967.83
2017-08-09T01:40:22.207Z,967.79
2017-08-09T01:41:22.303Z,967.81
2017-08-09T01:42:22.304Z,967.85
2017-08-09T01:43:22.196Z,967.9
2017-08-09T01:44:22.195Z,967.95
2017-08-09T01:45:22.192Z,968.03
2017-08-09T01:46:22.288Z,968.12
2017-08-09T01:47:22.184Z,968.12
2017-08-09T01:48:22.181Z,968.08
2017-08-09T01:49:22.178Z,968.01
2017-08-09T01:50:22.173Z,967.91
2017-08-09T01:51:22.171Z,967.84
2017-08-09T01:52:22.167Z,967.75
2017-08-09T01:53:22.164Z,967.72
2017-08-09T01:54:22.161Z,967.74
2017-08-09T01:55:22.159Z,967.76
2017-08-09T01:56:22.155Z,967.75
2017-08-09T01:57:22.152Z,967.72
2017-08-09T01:58:22.249Z,967.7
2017-08-09T01:59:22.246Z,967.71
2017-08-09T02:00:22.141Z,967.78
2017-08-09T02:01:22.139Z,967.9
2017-08-09T02:02:22.135Z,968.04
2017-08-09T02:03:22.132Z,968.12
2017-08-09T02:04:22.129Z,968.2
2017-08-09T02:05:22.125Z,968.23
2017-08-09T02:06:22.123Z,968.25
2017-08-09T02:07:22.119Z,968.27
2017-08-09T02:08:22.118Z,968.39
2017-08-09T02:09:22.112Z,968.43
2017-08-09T02:10:22.110Z,968.46
2017-08-09T02:11:22.106Z,968.43
2017-08-09T02:12:22.102Z,968.45
2017-08-09T02:13:22.099Z,968.35
2017-08-09T02:14:22.097Z,968.3
2017-08-09T02:15:22.093Z,968.16
2017-08-09T02:16:22.089Z,968.07
2017-08-09T02:17:22.086Z,968.03
2017-08-09T02:18:22.083Z,968.03
2017-08-09T02:19:22.080Z,968.03
2017-08-09T02:20:22.076Z,968.02
2017-08-09T02:21:22.072Z,968.1
2017-08-09T02:22:22.071Z,968.09
2017-08-09T02:23:22.067Z,968.14
2017-08-09T02:24:22.064Z,968.12
2017-08-09T02:25:22.060Z,968.16
2017-08-09T02:26:22.055Z,968.13
2017-08-09T02:27:22.055Z,968.15
2017-08-09T02:28:22.054Z,968.17
2017-08-09T02:29:22.047Z,968.18
2017-08-09T02:30:22.045Z,968.16
2017-08-09T02:31:22.040Z,968.2
2017-08-09T02:32:22.040Z,968.15
2017-08-09T02:33:22.034Z,968.12
2017-08-09T02:34:22.032Z,968.1
2017-08-09T02:35:22.032Z,968.06
2017-08-09T02:36:22.125Z,968.04
2017-08-09T02:37:22.121Z,968.03
2017-08-09T02:38:22.018Z,968.02
2017-08-09T02:39:22.013Z,968.05
2017-08-09T02:40:22.110Z,968.04
2017-08-09T02:41:22.157Z,968.1
2017-08-09T02:42:22.004Z,968.11
2017-08-09T02:43:22.101Z,968.18
2017-08-09T02:44:21.998Z,968.23
2017-08-09T02:45:21.994Z,968.28
2017-08-09T02:46:21.991Z,968.35
2017-08-09T02:47:21.994Z,968.3
2017-08-09T02:48:21.985Z,968.36
2017-08-09T02:49:21.979Z,968.33
2017-08-09T02:50:21.977Z,968.34
2017-08-09T02:51:21.976Z,968.28
2017-08-09T02:52:21.974Z,968.28
2017-08-09T02:53:21.966Z,968.32
2017-08-09T02:54:21.964Z,968.28
2017-08-09T02:55:21.962Z,968.3
2017-08-09T02:56:21.957Z,968.34
2017-08-09T02:57:22.110Z,968.33
2017-08-09T02:58:21.951Z,968.26
2017-08-09T02:59:21.949Z,968.26
2017-08-09T03:00:21.944Z,968.26
2017-08-09T03:01:21.942Z,968.23
2017-08-09T03:02:21.938Z,968.21
2017-08-09T03:03:21.935Z,968.19
2017-08-09T03:04:21.932Z,968.13
2017-08-09T03:05:21.928Z,968.13
2017-08-09T03:06:21.925Z,968.09
2017-08-09T03:07:21.921Z,968.08
2017-08-09T03:08:21.918Z,968.02
2017-08-09T03:09:21.915Z,968.04
2017-08-09T03:10:21.911Z,968.02
2017-08-09T03:11:21.907Z,968.02
2017-08-09T03:12:21.905Z,968.02
2017-08-09T03:13:21.902Z,967.93
2017-08-09T03:14:21.898Z,967.95
2017-08-09T03:15:21.894Z,967.95
2017-08-09T03:16:21.893Z,967.96
2017-08-09T03:17:21.889Z,967.92
2017-08-09T03:18:21.886Z,967.9
2017-08-09T03:19:21.881Z,967.91
2017-08-09T03:20:22.030Z,967.87
2017-08-09T03:21:21.878Z,967.9
2017-08-09T03:22:21.872Z,967.9
2017-08-09T03:23:21.868Z,967.88
2017-08-09T03:24:21.866Z,967.81
2017-08-09T03:25:21.862Z,967.84
2017-08-09T03:26:21.858Z,967.83
2017-08-09T03:27:21.857Z,967.8
2017-08-09T03:28:21.851Z,967.79
2017-08-09T03:29:21.848Z,967.79
2017-08-09T03:30:21.844Z,967.81
2017-08-09T03:31:21.844Z,967.86
2017-08-09T03:32:21.839Z,967.83
2017-08-09T03:33:21.835Z,967.88
2017-08-09T03:34:21.832Z,967.89
2017-08-09T03:35:21.828Z,967.87
2017-08-09T03:36:21.825Z,967.89
2017-08-09T03:37:21.822Z,967.87
2017-08-09T03:38:21.919Z,967.91
2017-08-09T03:39:21.915Z,967.87
2017-08-09T03:40:21.814Z,967.9
2017-08-09T03:41:21.808Z,967.89
2017-08-09T03:42:21.804Z,967.87
2017-08-09T03:43:21.802Z,967.83
2017-08-09T03:44:21.798Z,967.79
2017-08-09T03:45:21.795Z,967.81
2017-08-09T03:46:21.817Z,967.76
2017-08-09T03:47:21.788Z,967.77
2017-08-09T03:48:21.786Z,967.77
2017-08-09T03:49:21.781Z,967.79
2017-08-09T03:50:21.776Z,967.8
2017-08-09T03:51:21.773Z,967.82
2017-08-09T03:52:21.771Z,967.86
2017-08-09T03:53:21.768Z,967.87
2017-08-09T03:54:21.765Z,967.92
2017-08-09T03:55:21.759Z,967.9
2017-08-09T03:56:21.759Z,967.94
2017-08-09T03:57:21.756Z,967.95
2017-08-09T03:58:21.752Z,967.94
2017-08-09T03:59:21.747Z,967.9
2017-08-09T04:00:21.744Z,967.94
2017-08-09T04:01:21.740Z,967.89
2017-08-09T04:02:21.735Z,967.9
2017-08-09T04:03:21.735Z,967.9
2017-08-09T04:04:21.730Z,967.93
2017-08-09T04:05:21.727Z,967.95
2017-08-09T04:06:21.723Z,967.91
2017-08-09T04:07:21.720Z,967.94
2017-08-09T04:08:21.718Z,967.92
2017-08-09T04:09:21.714Z,967.94
2017-08-09T04:10:21.710Z,967.92
2017-08-09T04:11:21.705Z,967.91
2017-08-09T04:12:21.704Z,967.88
2017-08-09T04:13:21.701Z,967.88
2017-08-09T04:14:21.696Z,967.88
2017-08-09T04:15:21.693Z,967.85
2017-08-09T04:16:21.693Z,967.86
2017-08-09T04:17:21.685Z,967.86
2017-08-09T04:18:21.683Z,967.83
2017-08-09T04:19:21.681Z,967.82
2017-08-09T04:20:21.674Z,967.79
2017-08-09T04:21:21.672Z,967.78
2017-08-09T04:22:21.669Z,967.75
2017-08-09T04:23:21.666Z,967.79
2017-08-09T04:24:21.662Z,967.79
2017-08-09T04:25:21.659Z,967.79
2017-08-09T04:26:21.656Z,967.79
2017-08-09T04:27:21.652Z,967.81
2017-08-09T04:28:21.649Z,967.81
2017-08-09T04:29:21.646Z,967.84
2017-08-09T04:30:21.642Z,967.85
2017-08-09T04:31:21.639Z,967.88
2017-08-09T04:32:21.635Z,967.84
2017-08-09T04:33:21.631Z,967.86
2017-08-09T04:34:21.628Z,967.9
2017-08-09T04:35:21.624Z,967.86
2017-08-09T04:36:21.622Z,967.86
2017-08-09T04:37:21.718Z,967.85
2017-08-09T04:38:21.615Z,967.8
2017-08-09T04:39:21.611Z,967.76
2017-08-09T04:40:21.609Z,967.78
2017-08-09T04:41:21.603Z,967.73
2017-08-09T04:42:21.605Z,967.71
2017-08-09T04:43:21.597Z,967.73
2017-08-09T04:44:21.594Z,967.68
2017-08-09T04:45:21.592Z,967.72
2017-08-09T04:46:21.585Z,967.76
2017-08-09T04:47:21.583Z,967.75
2017-08-09T04:48:21.608Z,967.8
2017-08-09T04:49:21.578Z,967.79
2017-08-09T04:50:21.575Z,967.77
2017-08-09T04:51:21.571Z,967.81
2017-08-09T04:52:21.668Z,967.83
2017-08-09T04:53:21.563Z,967.8
2017-08-09T04:54:21.563Z,967.83
2017-08-09T04:55:21.561Z,967.84
2017-08-09T04:56:21.556Z,967.77
2017-08-09T04:57:21.551Z,967.79
2017-08-09T04:58:21.547Z,967.79
2017-08-09T04:59:21.544Z,967.84
2017-08-09T05:00:21.541Z,967.86
2017-08-09T05:01:21.540Z,967.84
2017-08-09T05:02:21.535Z,967.85
2017-08-09T05:03:21.682Z,967.88
2017-08-09T05:04:21.539Z,967.92
2017-08-09T05:05:21.525Z,967.89
2017-08-09T05:06:21.522Z,967.85
2017-08-09T05:07:21.519Z,967.87
2017-08-09T05:08:21.515Z,967.86
2017-08-09T05:09:21.512Z,967.83
2017-08-09T05:10:21.516Z,967.81
2017-08-09T05:11:21.506Z,967.84
2017-08-09T05:12:21.503Z,967.83
2017-08-09T05:13:21.501Z,967.85
2017-08-09T05:14:21.497Z,967.82
2017-08-09T05:15:21.494Z,967.8
2017-08-09T05:16:21.492Z,967.81
2017-08-09T05:17:21.490Z,967.74
2017-08-09T05:18:21.485Z,967.77
2017-08-09T05:19:21.482Z,967.76
2017-08-09T05:20:21.479Z,967.73
2017-08-09T05:21:21.476Z,967.75
2017-08-09T05:22:21.474Z,967.72
2017-08-09T05:23:21.470Z,967.7
2017-08-09T05:24:21.469Z,967.69
2017-08-09T05:25:21.464Z,967.69
2017-08-09T05:26:21.462Z,967.68
2017-08-09T05:27:21.457Z,967.68
2017-08-09T05:28:21.456Z,967.74
2017-08-09T05:29:21.454Z,967.7
2017-08-09T05:30:21.449Z,967.62
2017-08-09T05:31:21.446Z,967.61
2017-08-09T05:32:21.443Z,967.59
2017-08-09T05:33:21.440Z,967.52
2017-08-09T05:34:21.437Z,967.51
2017-08-09T05:35:21.434Z,967.52
2017-08-09T05:36:21.431Z,967.54
2017-08-09T05:37:21.428Z,967.53
2017-08-09T05:38:21.424Z,967.57
2017-08-09T05:39:21.423Z,967.57
2017-08-09T05:40:21.421Z,967.58
2017-08-09T05:41:21.416Z,967.59
2017-08-09T05:42:21.414Z,967.6
2017-08-09T05:43:21.411Z,967.68
2017-08-09T05:44:21.409Z,967.63
2017-08-09T05:45:21.406Z,967.66
2017-08-09T05:46:21.403Z,967.7
2017-08-09T05:47:21.402Z,967.71
2017-08-09T05:48:21.398Z,967.73
2017-08-09T05:49:21.397Z,967.76
2017-08-09T05:50:21.393Z,967.78
2017-08-09T05:51:21.392Z,967.82
2017-08-09T05:52:21.388Z,967.82
2017-08-09T05:53:21.386Z,967.88
2017-08-09T05:54:21.385Z,967.92
2017-08-09T05:55:21.530Z,967.98
2017-08-09T05:56:21.378Z,967.96
2017-08-09T05:57:21.375Z,967.98
2017-08-09T05:58:21.374Z,967.99
2017-08-09T05:59:21.370Z,968
2017-08-09T06:00:21.368Z,968
2017-08-09T06:01:21.365Z,968.02
2017-08-09T06:02:21.363Z,968.02
2017-08-09T06:03:21.360Z,968.02
2017-08-09T06:04:21.358Z,967.97
2017-08-09T06:05:21.355Z,968.03
2017-08-09T06:06:21.352Z,968.04
2017-08-09T06:07:21.353Z,968.06
2017-08-09T06:08:21.347Z,968.07
2017-08-09T06:09:21.345Z,968.06
2017-08-09T06:10:21.343Z,968.04
2017-08-09T06:11:21.339Z,968.03
2017-08-09T06:12:21.336Z,967.97
2017-08-09T06:13:21.335Z,967.97
2017-08-09T06:14:21.331Z,967.94
2017-08-09T06:15:21.328Z,967.99
2017-08-09T06:16:21.326Z,968.02
2017-08-09T06:17:21.423Z,968.06
2017-08-09T06:18:21.322Z,968.1
2017-08-09T06:19:21.318Z,968.09
2017-08-09T06:20:21.320Z,968.11
2017-08-09T06:21:21.311Z,968.07
2017-08-09T06:22:21.310Z,968.09
2017-08-09T06:23:21.460Z,968.07
2017-08-09T06:24:21.307Z,968.09
2017-08-09T06:25:21.310Z,968.07
2017-08-09T06:26:21.302Z,968.05
2017-08-09T06:27:21.298Z,968.11
2017-08-09T06:28:21.294Z,968.08
2017-08-09T06:29:21.292Z,968.04
2017-08-09T06:30:21.291Z,968.03
2017-08-09T06:31:21.292Z,968.06
2017-08-09T06:32:21.285Z,968.07
2017-08-09T06:33:21.287Z,968.1
2017-08-09T06:34:21.280Z,968.11
2017-08-09T06:35:21.275Z,968.15
2017-08-09T06:36:21.275Z,968.13
2017-08-09T06:37:21.274Z,968.13
2017-08-09T06:38:21.271Z,968.09
2017-08-09T06:39:21.268Z,968.09
2017-08-09T06:40:21.265Z,968.11
2017-08-09T06:41:21.264Z,968.1
2017-08-09T06:42:21.261Z,968.08
2017-08-09T06:43:21.259Z,968.1
2017-08-09T06:44:21.256Z,968.08
2017-08-09T06:45:21.254Z,968.1
2017-08-09T06:46:21.251Z,968.08
2017-08-09T06:47:21.249Z,968.09
2017-08-09T06:48:21.250Z,968.07
2017-08-09T06:49:21.244Z,968.05
2017-08-09T06:50:21.342Z,968.03
2017-08-09T06:51:21.240Z,967.99
2017-08-09T06:52:21.239Z,967.94
2017-08-09T06:53:21.238Z,967.97
2017-08-09T06:54:21.231Z,967.93
2017-08-09T06:55:21.231Z,967.99
2017-08-09T06:56:21.228Z,968.01
2017-08-09T06:57:21.226Z,968.01
2017-08-09T06:58:21.324Z,968.05
2017-08-09T06:59:21.222Z,968.01
2017-08-09T07:00:21.219Z,968.06
2017-08-09T07:01:21.217Z,968.07
2017-08-09T07:02:21.216Z,968.08
2017-08-09T07:03:21.217Z,968.06
2017-08-09T07:04:21.211Z,968.09
2017-08-09T07:05:21.207Z,968.12
2017-08-09T07:06:21.210Z,968.11
2017-08-09T07:07:21.205Z,968.12
2017-08-09T07:08:21.201Z,968.16
2017-08-09T07:09:21.199Z,968.18
2017-08-09T07:10:21.199Z,968.2
2017-08-09T07:11:21.194Z,968.21
2017-08-09T07:12:21.191Z,968.23
2017-08-09T07:13:21.190Z,968.25
2017-08-09T07:14:21.188Z,968.26
2017-08-09T07:15:21.336Z,968.29
2017-08-09T07:16:21.182Z,968.3
2017-08-09T07:17:21.180Z,968.27
2017-08-09T07:18:21.184Z,968.28
2017-08-09T07:19:21.179Z,968.28
2017-08-09T07:20:21.174Z,968.26
2017-08-09T07:21:21.172Z,968.32
2017-08-09T07:22:21.168Z,968.27
2017-08-09T07:23:21.166Z,968.25
2017-08-09T07:24:21.164Z,968.22
2017-08-09T07:25:21.162Z,968.17
2017-08-09T07:26:21.160Z,968.14
2017-08-09T07:27:21.157Z,968.1
2017-08-09T07:28:21.156Z,968.12
2017-08-09T07:29:21.154Z,968.14
2017-08-09T07:30:21.149Z,968.16
2017-08-09T07:31:21.148Z,968.18
2017-08-09T07:32:21.145Z,968.21
2017-08-09T07:33:21.148Z,968.21
2017-08-09T07:34:21.138Z,968.18
2017-08-09T07:35:21.137Z,968.15
2017-08-09T07:36:21.135Z,968.15
2017-08-09T07:37:21.133Z,968.18
2017-08-09T07:38:21.229Z,968.23
2017-08-09T07:39:21.126Z,968.28
2017-08-09T07:40:21.125Z,968.28
2017-08-09T07:41:21.222Z,968.25
2017-08-09T07:42:21.120Z,968.24
2017-08-09T07:43:21.118Z,968.22
2017-08-09T07:44:21.216Z,968.25
2017-08-09T07:45:21.113Z,968.27
2017-08-09T07:46:21.110Z,968.22
2017-08-09T07:47:21.109Z,968.18
2017-08-09T07:48:21.107Z,968.17
2017-08-09T07:49:21.102Z,968.1
2017-08-09T07:50:21.101Z,968.07
2017-08-09T07:51:21.099Z,968.05
2017-08-09T07:52:21.095Z,968.09
2017-08-09T07:53:21.094Z,968.07
2017-08-09T07:54:21.093Z,968.05
2017-08-09T07:55:21.090Z,967.98
2017-08-09T07:56:21.089Z,967.97
2017-08-09T07:57:21.087Z,967.91
2017-08-09T07:58:21.085Z,967.81
2017-08-09T07:59:21.082Z,967.8
2017-08-09T08:00:21.079Z,967.77
2017-08-09T08:01:21.080Z,967.74
2017-08-09T08:02:21.177Z,967.77
2017-08-09T08:03:21.075Z,967.81
2017-08-09T08:04:21.074Z,967.89
2017-08-09T08:05:21.072Z,967.88
2017-08-09T08:06:21.169Z,967.99
2017-08-09T08:07:21.067Z,968.02
2017-08-09T08:08:21.066Z,968.05
2017-08-09T08:09:21.064Z,968.02
2017-08-09T08:10:21.214Z,968.03
2017-08-09T08:11:21.062Z,968.06
2017-08-09T08:12:21.059Z,968.08
2017-08-09T08:13:21.059Z,968.06
2017-08-09T08:14:21.054Z,968.04
2017-08-09T08:15:21.053Z,968.06
2017-08-09T08:16:21.052Z,968.03
2017-08-09T08:17:21.051Z,968.01
2017-08-09T08:18:21.048Z,968
2017-08-09T08:19:21.047Z,967.97
2017-08-09T08:20:21.045Z,967.96
2017-08-09T08:21:21.044Z,968
2017-08-09T08:22:21.042Z,967.94
2017-08-09T08:23:21.038Z,967.87
2017-08-09T08:24:21.040Z,967.82
2017-08-09T08:25:21.035Z,967.78
2017-08-09T08:26:21.040Z,967.73
2017-08-09T08:27:21.031Z,967.69
2017-08-09T08:28:21.031Z,967.64
2017-08-09T08:29:21.027Z,967.65
2017-08-09T08:30:21.026Z,967.68
2017-08-09T08:31:21.027Z,967.69
2017-08-09T08:32:21.024Z,967.71
2017-08-09T08:33:21.020Z,967.67
2017-08-09T08:34:21.020Z,967.61
2017-08-09T08:35:21.018Z,967.6
2017-08-09T08:36:21.016Z,967.59
2017-08-09T08:37:21.014Z,967.53
2017-08-09T08:38:21.013Z,967.53
2017-08-09T08:39:21.011Z,967.53
2017-08-09T08:40:21.008Z,967.54
2017-08-09T08:41:21.008Z,967.49
2017-08-09T08:42:21.006Z,967.5
2017-08-09T08:43:21.004Z,967.5
2017-08-09T08:44:21.002Z,967.5
2017-08-09T08:45:21.001Z,967.48
2017-08-09T08:46:20.999Z,967.42
2017-08-09T08:47:20.996Z,967.38
2017-08-09T08:48:21.000Z,967.39
2017-08-09T08:49:20.993Z,967.4
2017-08-09T08:50:20.991Z,967.37
2017-08-09T08:51:20.989Z,967.36
2017-08-09T08:52:20.987Z,967.34
2017-08-09T08:53:20.986Z,967.26
2017-08-09T08:54:20.984Z,967.26
2017-08-09T08:55:20.982Z,967.26
2017-08-09T08:56:20.982Z,967.24
2017-08-09T08:57:20.978Z,967.25
2017-08-09T08:58:20.975Z,967.19
2017-08-09T08:59:21.123Z,967.16
2017-08-09T09:00:20.971Z,967.16
2017-08-09T09:01:20.970Z,967.12
2017-08-09T09:02:20.968Z,967.06
2017-08-09T09:03:20.967Z,967.03
2017-08-09T09:04:20.966Z,967.02
2017-08-09T09:05:20.963Z,966.99
2017-08-09T09:06:20.961Z,966.95
2017-08-09T09:07:20.961Z,966.89
2017-08-09T09:08:20.959Z,966.93
2017-08-09T09:09:20.955Z,966.91
2017-08-09T09:10:20.955Z,966.91
2017-08-09T09:11:20.951Z,966.99
2017-08-09T09:12:20.952Z,966.98
2017-08-09T09:13:20.947Z,966.97
2017-08-09T09:14:20.946Z,966.93
2017-08-09T09:15:20.945Z,966.9
2017-08-09T09:16:20.942Z,966.87
2017-08-09T09:17:20.940Z,966.93
2017-08-09T09:18:20.940Z,966.96
2017-08-09T09:19:20.937Z,966.98
2017-08-09T09:20:20.934Z,967
2017-08-09T09:21:20.933Z,967
2017-08-09T09:22:20.930Z,967.04
2017-08-09T09:23:20.929Z,967.03
2017-08-09T09:24:20.925Z,967.06
2017-08-09T09:25:20.925Z,967.04
2017-08-09T09:26:20.922Z,967.02
2017-08-09T09:27:20.919Z,967.01
2017-08-09T09:28:20.918Z,967
2017-08-09T09:29:20.917Z,966.96
2017-08-09T09:30:20.914Z,966.89
2017-08-09T09:31:20.910Z,966.91
2017-08-09T09:32:20.909Z,966.89
2017-08-09T09:33:20.907Z,966.94
2017-08-09T09:34:20.905Z,966.91
2017-08-09T09:35:20.905Z,966.85
2017-08-09T09:36:21.002Z,966.84
2017-08-09T09:37:20.899Z,966.81
2017-08-09T09:38:20.897Z,966.79
2017-08-09T09:39:20.895Z,966.77
2017-08-09T09:40:20.891Z,966.77
2017-08-09T09:41:20.889Z,966.75
2017-08-09T09:42:20.887Z,966.78
2017-08-09T09:43:20.890Z,966.81
2017-08-09T09:44:20.884Z,966.82
2017-08-09T09:45:20.881Z,966.81
2017-08-09T09:46:20.879Z,966.76
2017-08-09T09:47:20.878Z,966.83
2017-08-09T09:48:20.876Z,966.78
2017-08-09T09:49:20.873Z,966.77
2017-08-09T09:50:20.870Z,966.8
2017-08-09T09:51:20.867Z,966.77
2017-08-09T09:52:20.967Z,966.78
2017-08-09T09:53:20.861Z,966.81
2017-08-09T09:54:20.861Z,966.82
2017-08-09T09:55:20.858Z,966.84
2017-08-09T09:56:20.857Z,966.88
2017-08-09T09:57:20.855Z,966.83
2017-08-09T09:58:20.851Z,966.84
2017-08-09T09:59:20.851Z,966.77
2017-08-09T10:00:20.846Z,966.77
2017-08-09T10:01:20.845Z,966.76
2017-08-09T10:02:20.843Z,966.76
2017-08-09T10:03:20.842Z,966.73
2017-08-09T10:04:20.838Z,966.7
2017-08-09T10:05:20.837Z,966.65
2017-08-09T10:06:20.834Z,966.63
2017-08-09T10:07:20.832Z,966.56
2017-08-09T10:08:20.829Z,966.59
2017-08-09T10:09:20.828Z,966.56
2017-08-09T10:10:20.825Z,966.52
2017-08-09T10:11:20.822Z,966.53
2017-08-09T10:12:20.820Z,966.5
2017-08-09T10:13:20.818Z,966.46
2017-08-09T10:14:20.815Z,966.46
2017-08-09T10:15:20.812Z,966.43
2017-08-09T10:16:20.811Z,966.43
2017-08-09T10:17:20.808Z,966.44
2017-08-09T10:18:20.808Z,966.39
2017-08-09T10:19:20.904Z,966.42
2017-08-09T10:20:20.801Z,966.42
2017-08-09T10:21:20.800Z,966.4
2017-08-09T10:22:20.797Z,966.38
2017-08-09T10:23:20.796Z,966.38
2017-08-09T10:24:20.792Z,966.39
2017-08-09T10:25:20.789Z,966.37
2017-08-09T10:26:20.787Z,966.44
2017-08-09T10:27:20.786Z,966.47
2017-08-09T10:28:20.783Z,966.47
2017-08-09T10:29:20.779Z,966.54
2017-08-09T10:30:20.778Z,966.5
2017-08-09T10:31:20.776Z,966.48
2017-08-09T10:32:20.774Z,966.51
2017-08-09T10:33:20.770Z,966.53
2017-08-09T10:34:20.769Z,966.52
2017-08-09T10:35:20.767Z,966.45
2017-08-09T10:36:20.764Z,966.45
2017-08-09T10:37:20.762Z,966.42
2017-08-09T10:38:20.760Z,966.43
2017-08-09T10:39:20.758Z,966.42
2017-08-09T10:40:20.754Z,966.4
2017-08-09T10:41:20.752Z,966.41
2017-08-09T10:42:20.751Z,966.43
2017-08-09T10:43:20.747Z,966.44
2017-08-09T10:44:20.745Z,966.46
2017-08-09T10:45:20.743Z,966.48
2017-08-09T10:46:20.741Z,966.48
2017-08-09T10:47:20.738Z,966.52
2017-08-09T10:48:20.735Z,966.51
2017-08-09T10:49:20.733Z,966.48
2017-08-09T10:50:20.730Z,966.55
2017-08-09T10:51:20.728Z,966.57
2017-08-09T10:52:20.725Z,966.57
2017-08-09T10:53:20.724Z,966.52
2017-08-09T10:54:20.721Z,966.55
2017-08-09T10:55:20.718Z,966.54
2017-08-09T10:56:20.717Z,966.49
2017-08-09T10:57:20.713Z,966.51
2017-08-09T10:58:20.712Z,966.54
2017-08-09T10:59:20.710Z,966.54
2017-08-09T11:00:20.707Z,966.57
2017-08-09T11:01:20.704Z,966.53
2017-08-09T11:02:20.701Z,966.56
2017-08-09T11:03:20.699Z,966.44
2017-08-09T11:04:20.697Z,966.46
2017-08-09T11:05:20.696Z,966.39
2017-08-09T11:06:20.693Z,966.42
2017-08-09T11:07:20.690Z,966.43
2017-08-09T11:08:20.688Z,966.47
2017-08-09T11:09:20.686Z,966.48
2017-08-09T11:10:20.684Z,966.49
2017-08-09T11:11:20.682Z,966.49
2017-08-09T11:12:20.680Z,966.45
2017-08-09T11:13:20.677Z,966.45
2017-08-09T11:14:20.674Z,966.52
2017-08-09T11:15:20.674Z,966.56
2017-08-09T11:16:20.673Z,966.57
2017-08-09T11:17:20.668Z,966.52
2017-08-09T11:18:20.666Z,966.51
2017-08-09T11:19:20.665Z,966.51
2017-08-09T11:20:20.661Z,966.46
2017-08-09T11:21:20.660Z,966.4
2017-08-09T11:22:20.657Z,966.44
2017-08-09T11:23:20.655Z,966.51
2017-08-09T11:24:20.652Z,966.52
2017-08-09T11:25:20.651Z,966.55
2017-08-09T11:26:20.649Z,966.53
2017-08-09T11:27:20.647Z,966.56
2017-08-09T11:28:20.644Z,966.54
2017-08-09T11:29:20.642Z,966.53
2017-08-09T11:30:20.640Z,966.58
2017-08-09T11:31:20.638Z,966.55
2017-08-09T11:32:20.636Z,966.55
2017-08-09T11:33:20.633Z,966.54
2017-08-09T11:34:20.634Z,966.53
2017-08-09T11:35:20.780Z,966.5
2017-08-09T11:36:20.628Z,966.51
2017-08-09T11:37:20.626Z,966.49
2017-08-09T11:38:20.624Z,966.51
2017-08-09T11:39:20.621Z,966.5
2017-08-09T11:40:20.621Z,966.49
2017-08-09T11:41:20.618Z,966.41
2017-08-09T11:42:20.716Z,966.43
2017-08-09T11:43:20.613Z,966.43
2017-08-09T11:44:20.611Z,966.42
2017-08-09T11:45:20.611Z,966.47
2017-08-09T11:46:20.608Z,966.45
2017-08-09T11:47:20.757Z,966.5
2017-08-09T11:48:20.604Z,966.47
2017-08-09T11:49:20.703Z,966.45
2017-08-09T11:50:20.600Z,966.47
2017-08-09T11:51:20.599Z,966.42
2017-08-09T11:52:20.597Z,966.45
2017-08-09T11:53:20.695Z,966.35
2017-08-09T11:54:20.592Z,966.36
2017-08-09T11:55:20.593Z,966.42
2017-08-09T11:56:20.589Z,966.4
2017-08-09T11:57:20.588Z,966.39
2017-08-09T11:58:20.588Z,966.39
2017-08-09T11:59:20.584Z,966.39
2017-08-09T12:00:20.583Z,966.4
2017-08-09T12:01:20.579Z,966.39
2017-08-09T12:02:20.578Z,966.32
2017-08-09T12:03:20.727Z,966.29
2017-08-09T12:04:20.725Z,966.31
2017-08-09T12:05:20.573Z,966.33
2017-08-09T12:06:20.571Z,966.28
2017-08-09T12:07:20.570Z,966.23
2017-08-09T12:08:20.567Z,966.21
2017-08-09T12:09:20.566Z,966.19
2017-08-09T12:10:20.564Z,966.2
2017-08-09T12:11:20.562Z,966.18
2017-08-09T12:12:20.660Z,966.2
2017-08-09T12:13:20.557Z,966.22
2017-08-09T12:14:20.556Z,966.21
2017-08-09T12:15:20.556Z,966.27
2017-08-09T12:16:20.652Z,966.3
2017-08-09T12:17:20.551Z,966.33
2017-08-09T12:18:20.549Z,966.31
2017-08-09T12:19:20.545Z,966.28
2017-08-09T12:20:20.544Z,966.25
2017-08-09T12:21:20.544Z,966.24
2017-08-09T12:22:20.540Z,966.26
2017-08-09T12:23:20.542Z,966.28
2017-08-09T12:24:20.536Z,966.3
2017-08-09T12:25:20.539Z,966.33
2017-08-09T12:26:20.532Z,966.31
2017-08-09T12:27:20.529Z,966.31
2017-08-09T12:28:20.681Z,966.32
2017-08-09T12:29:20.525Z,966.28
2017-08-09T12:30:20.524Z,966.33
2017-08-09T12:31:20.521Z,966.34